Aldao, Argentina
Current Conditions -  °F | °C
As of 8:00 PM on Wednesday 17 Dec 2014 (Local Time) from SAAR Reporting Station
Broken Clouds Broken Clouds  
Wind Chill: 28°   Ceiling: 10000
Heat Index: 29°   Visibility: 6mi
Dew Point: 19°   Wind: 3mph
Humidity: 58%   Direction: 20°NNE
Pressure: 29.85"   Gusts: NA
Location:  32.72°S, 60.82°W
Report Text: SAAR 172300Z 02003KT 9999 SCT045 FEW050CBBKN100 28/19 Q1011
Loading
Personal Weather Stations






























Interactive Weather Map New forecast layout! Learn more

10-Day Weather Forecast

Advertisements
Track Severe Weather on mobile